Time;durP1;ratioP1;P1;durP2;ratioP2;P2;SDS_P1;SDS_P2;PMS_P1;PMS_P2;Temp;Humidity;BMP_temperature;BMP_pressure;BME280_temperature;BME280_humidity;BME280_pressure;Samples;Min_cycle;Max_cycle;Signal;HPM_P1;HPM_P2
2021/10/24 00:01:19;;;;;;;0.80;0.80;;;;;;;25.78;21.99;94957.69;4986503;28;20030;-83
2021/10/24 00:03:45;;;;;;;0.70;0.70;;;;;;;25.77;21.60;94966.75;4982665;28;20038;-83
2021/10/24 00:06:15;;;;;;;1.13;0.70;;;;;;;25.78;21.87;94965.69;4980445;28;20185;-83
2021/10/24 00:08:42;;;;;;;0.70;0.70;;;;;;;25.78;21.67;94969.16;5006630;28;20053;-83
2021/10/24 00:11:08;;;;;;;0.85;0.70;;;;;;;25.78;21.63;94968.34;4996415;28;20050;-83
2021/10/24 00:13:34;;;;;;;1.02;0.88;;;;;;;25.78;21.97;94963.81;5018761;28;20064;-83
2021/10/24 00:16:02;;;;;;;0.65;0.65;;;;;;;25.78;21.58;94960.34;4996822;28;20037;-83
2021/10/24 00:18:27;;;;;;;0.60;0.60;;;;;;;25.77;21.64;94966.75;4992406;28;20126;-83
2021/10/24 00:20:56;;;;;;;1.45;0.70;;;;;;;25.80;21.89;94958.19;4983819;28;20481;-83
2021/10/24 00:23:23;;;;;;;0.70;0.70;;;;;;;25.75;21.88;94953.72;4994665;28;20041;-83
2021/10/24 00:25:50;;;;;;;0.82;0.75;;;;;;;25.79;21.79;94968.06;4989422;28;20037;-83
2021/10/24 00:28:15;;;;;;;0.82;0.82;;;;;;;25.78;21.42;94968.34;4987713;28;20093;-83
2021/10/24 00:30:43;;;;;;;0.73;0.73;;;;;;;25.78;21.92;94966.50;4967381;28;20030;-83
2021/10/24 00:33:08;;;;;;;0.70;0.70;;;;;;;25.77;21.73;94967.56;5014526;28;20037;-83
2021/10/24 00:35:34;;;;;;;0.90;0.80;;;;;;;25.80;21.81;94963.53;4962985;28;20033;-83
2021/10/24 00:37:59;;;;;;;0.90;0.90;;;;;;;25.78;21.49;94965.69;5006571;28;20165;-83
2021/10/24 00:40:27;;;;;;;0.80;0.73;;;;;;;25.75;21.54;94953.72;5003506;28;20076;-83
2021/10/24 00:42:54;;;;;;;1.10;0.80;;;;;;;25.75;21.54;94951.06;4982051;28;20030;-83
2021/10/24 00:45:24;;;;;;;0.73;0.65;;;;;;;25.79;21.49;94965.41;4964591;28;20023;-83
2021/10/24 00:47:52;;;;;;;1.17;0.80;;;;;;;25.79;21.45;94953.97;4995214;28;20022;-83
2021/10/24 00:50:18;;;;;;;0.90;0.80;;;;;;;25.80;21.44;94963.53;5001127;28;20113;-83
2021/10/24 00:52:44;;;;;;;0.80;0.80;;;;;;;25.78;21.36;94957.69;4974282;28;20110;-83
2021/10/24 00:55:09;;;;;;;1.48;0.70;;;;;;;25.81;21.64;94962.47;4972291;28;20030;-83
2021/10/24 00:57:35;;;;;;;0.80;0.70;;;;;;;25.81;21.42;94951.81;4989264;28;20030;-83
2021/10/24 01:00:07;;;;;;;0.63;0.63;;;;;;;25.87;21.70;94951.47;4975536;28;20030;-83
2021/10/24 01:02:36;;;;;;;0.63;0.63;;;;;;;25.79;21.54;94946.75;5008868;28;20080;-84
2021/10/24 01:05:05;;;;;;;0.80;0.80;;;;;;;25.82;21.13;94948.09;4979189;28;20030;-83
2021/10/24 01:07:30;;;;;;;0.80;0.70;;;;;;;25.80;21.42;94950.19;4978460;28;20049;-83
2021/10/24 01:09:58;;;;;;;0.77;0.77;;;;;;;25.79;21.46;94952.06;5018007;28;20022;-83
2021/10/24 01:12:26;;;;;;;0.70;0.70;;;;;;;25.81;21.57;94951.81;4995689;28;20030;-83
2021/10/24 01:14:54;;;;;;;1.00;0.80;;;;;;;25.79;21.34;94948.63;5001854;28;20101;-83
2021/10/24 01:17:20;;;;;;;0.80;0.80;;;;;;;25.81;21.36;94952.59;5010220;28;20030;-83
2021/10/24 01:19:48;;;;;;;0.82;0.80;;;;;;;25.87;21.54;94948.00;4991531;28;20034;-83
2021/10/24 01:22:13;;;;;;;1.33;0.90;;;;;;;25.80;21.08;94939.53;4981174;28;20038;-83
2021/10/24 01:24:42;;;;;;;1.00;0.80;;;;;;;25.82;21.28;94937.44;4963999;28;20037;-83
2021/10/24 01:27:07;;;;;;;0.77;0.77;;;;;;;25.78;21.11;94937.19;4999701;28;20118;-83
2021/10/24 01:29:35;;;;;;;1.00;0.80;;;;;;;25.82;21.17;94940.88;4970174;28;20026;-83
2021/10/24 01:32:01;;;;;;;0.70;0.70;;;;;;;25.80;21.27;94944.88;4979141;28;20069;-83
2021/10/24 01:34:26;;;;;;;0.80;0.80;;;;;;;25.82;21.10;94948.09;4983250;28;20070;-83
2021/10/24 01:36:55;;;;;;;0.70;0.70;;;;;;;25.81;20.89;94943.81;5008091;28;20022;-83
2021/10/24 01:39:21;;;;;;;0.80;0.80;;;;;;;25.79;21.22;94944.09;4993058;28;20101;-83
2021/10/24 01:41:48;;;;;;;0.90;0.90;;;;;;;25.84;21.40;94936.06;4975904;28;20080;-83
2021/10/24 01:44:17;;;;;;;0.75;0.73;;;;;;;25.80;20.98;94939.53;4993030;28;20031;-83
2021/10/24 01:46:47;;;;;;;0.80;0.80;;;;;;;25.79;21.13;94927.31;4982767;28;20066;-83
2021/10/24 01:49:12;;;;;;;;;;;;;;;26.01;21.73;94935.66;4998352;28;20041;-83
2021/10/24 01:51:38;;;;;;;1.00;0.90;;;;;;;25.85;21.22;94921.66;4997813;28;19917;-83
2021/10/24 01:54:03;;;;;;;1.13;0.80;;;;;;;25.84;21.16;94929.94;5002953;28;20335;-82
2021/10/24 01:56:29;;;;;;;0.80;0.80;;;;;;;25.84;20.83;94937.94;4974238;28;20041;-83
2021/10/24 01:58:54;;;;;;;0.70;0.70;;;;;;;25.81;21.25;94933.16;4992768;28;20033;-83
2021/10/24 02:01:20;;;;;;;0.80;0.80;;;;;;;25.81;20.95;94930.50;4965388;28;20037;-83
2021/10/24 02:03:45;;;;;;;1.08;0.98;;;;;;;25.80;20.78;94926.22;4965689;28;20049;-83
2021/10/24 02:06:11;;;;;;;0.80;0.80;;;;;;;25.79;21.14;94914.78;5016878;28;20041;-83
2021/10/24 02:08:36;;;;;;;0.90;0.90;;;;;;;25.77;20.70;94916.94;4993694;28;20041;-83
2021/10/24 02:11:02;;;;;;;1.60;0.95;;;;;;;25.76;21.00;94915.38;4999828;28;20038;-83
2021/10/24 02:13:27;;;;;;;0.80;0.80;;;;;;;25.79;21.05;94911.34;5010494;28;20038;-83
2021/10/24 02:15:53;;;;;;;0.88;0.80;;;;;;;25.81;20.74;94919.84;4997729;28;20023;-83
2021/10/24 02:18:18;;;;;;;0.82;0.80;;;;;;;25.81;20.98;94922.50;4991616;28;20036;-83
2021/10/24 02:20:44;;;;;;;0.70;0.70;;;;;;;25.80;20.74;94918.22;4977274;28;20018;-83
2021/10/24 02:23:09;;;;;;;0.80;0.80;;;;;;;25.81;20.90;94914.50;4989416;28;20037;-83
2021/10/24 02:25:35;;;;;;;0.70;0.70;;;;;;;25.80;20.55;94918.22;4992516;28;20037;-83
2021/10/24 02:28:01;;;;;;;0.90;0.90;;;;;;;25.80;20.85;94907.56;4992479;28;20103;-83
2021/10/24 02:30:31;;;;;;;0.80;0.73;;;;;;;25.84;20.86;94913.97;4983700;28;20438;-83
2021/10/24 02:32:56;;;;;;;;;;;;;;;26.01;21.37;94926.84;5004125;28;20042;-83
2021/10/24 02:35:25;;;;;;;0.75;0.75;;;;;;;25.86;20.38;94917.13;4988924;28;19940;-83
2021/10/24 02:37:51;;;;;;;1.00;0.85;;;;;;;25.83;20.85;94915.81;4973418;28;20050;-83
2021/10/24 02:40:17;;;;;;;0.80;0.70;;;;;;;25.80;20.51;94910.25;4981968;28;20059;-83
2021/10/24 02:42:42;;;;;;;0.85;0.70;;;;;;;25.80;20.82;94907.56;4998369;28;20027;-82
2021/10/24 02:45:08;;;;;;;0.77;0.77;;;;;;;25.78;20.56;94910.56;4994423;28;20117;-83
2021/10/24 02:47:36;;;;;;;1.20;1.10;;;;;;;25.78;20.34;94915.06;4990609;28;20033;-84
2021/10/24 02:50:01;;;;;;;1.50;0.90;;;;;;;25.77;20.32;94914.28;4977572;28;20029;-83
2021/10/24 02:52:27;;;;;;;0.80;0.80;;;;;;;25.78;20.58;94921.19;4976574;28;20038;-83
2021/10/24 02:54:54;;;;;;;0.80;0.80;;;;;;;25.77;20.74;94910.81;4966051;28;20038;-83
2021/10/24 02:57:22;;;;;;;0.90;0.90;;;;;;;25.77;20.37;94916.94;4999011;28;20087;-83
2021/10/24 02:59:47;;;;;;;0.80;0.80;;;;;;;25.79;20.51;94922.00;4977784;28;20026;-83
2021/10/24 03:02:15;;;;;;;1.23;0.80;;;;;;;25.78;20.40;94923.06;4999549;28;20037;-83
2021/10/24 03:04:45;;;;;;;1.08;0.93;;;;;;;25.79;20.52;94919.31;4976189;28;20030;-83
2021/10/24 03:07:11;;;;;;;;;;;;;;;25.99;21.22;94921.81;4980239;28;20034;-83
2021/10/24 03:09:40;;;;;;;0.90;0.85;;;;;;;25.86;20.26;94925.13;5024838;28;19924;-83
2021/10/24 03:12:07;;;;;;;0.80;0.80;;;;;;;25.80;20.59;94921.72;4980959;28;20034;-83
2021/10/24 03:14:33;;;;;;;1.00;0.90;;;;;;;25.81;20.35;94919.84;4972840;28;20030;-83
2021/10/24 03:16:58;;;;;;;0.80;0.80;;;;;;;25.80;20.52;94920.91;4995518;28;20052;-83
2021/10/24 03:19:25;;;;;;;0.80;0.80;;;;;;;25.79;20.58;94928.09;4994121;28;20034;-83
2021/10/24 03:21:50;;;;;;;0.80;0.80;;;;;;;25.75;20.10;94917.22;5018869;28;20037;-83
2021/10/24 03:24:18;;;;;;;0.95;0.80;;;;;;;25.78;20.41;94928.38;4979893;28;20046;-83
2021/10/24 03:26:43;;;;;;;1.00;0.90;;;;;;;25.75;20.48;94933.19;4981067;28;20031;-83
2021/10/24 03:29:11;;;;;;;1.23;0.82;;;;;;;25.75;20.42;94930.53;4996432;28;20065;-84
2021/10/24 03:31:39;;;;;;;0.80;0.80;;;;;;;25.75;20.32;94937.72;5009913;28;20034;-83
2021/10/24 03:34:07;;;;;;;0.80;0.80;;;;;;;25.75;20.43;94935.84;4994283;28;20026;-84
2021/10/24 03:36:32;;;;;;;1.00;0.90;;;;;;;25.72;20.41;94928.44;4996117;28;20025;-83
2021/10/24 03:38:58;;;;;;;1.48;0.80;;;;;;;25.77;20.50;94943.56;4997287;28;20034;-83
2021/10/24 03:41:28;;;;;;;0.88;0.82;;;;;;;25.80;20.56;94934.22;4981751;28;20041;-83
2021/10/24 03:43:53;;;;;;;;;;;;;;;25.98;20.66;94943.41;4982149;28;20038;-83
2021/10/24 03:46:21;;;;;;;0.73;0.73;;;;;;;25.89;20.31;94945.88;4992491;28;19925;-83
2021/10/24 03:48:47;;;;;;;0.98;0.80;;;;;;;25.81;20.36;94946.47;5008964;28;20045;-83
2021/10/24 03:51:13;;;;;;;0.93;0.90;;;;;;;25.79;20.15;94943.31;5001102;28;20034;-83
2021/10/24 03:53:41;;;;;;;0.80;0.80;;;;;;;25.78;20.40;94945.19;4993991;28;20029;-84
2021/10/24 03:56:06;;;;;;;1.15;1.05;;;;;;;25.77;20.12;94935.59;4991130;28;20034;-83
2021/10/24 03:58:31;;;;;;;0.90;0.90;;;;;;;25.77;20.41;94940.91;5010121;28;20030;-83
2021/10/24 04:00:57;;;;;;;1.10;0.90;;;;;;;25.75;20.76;94930.53;5000957;28;20030;-83
2021/10/24 04:03:22;;;;;;;0.88;0.75;;;;;;;25.76;20.05;94936.69;5000636;28;20026;-83
2021/10/24 04:05:50;;;;;;;1.23;0.88;;;;;;;25.72;20.42;94939.09;5004069;28;20022;-83
2021/10/24 04:08:16;;;;;;;0.80;0.80;;;;;;;25.77;20.42;94940.13;4995892;28;20036;-83
2021/10/24 04:10:45;;;;;;;0.88;0.80;;;;;;;25.74;20.32;94936.94;4999432;28;20029;-84
2021/10/24 04:13:10;;;;;;;1.08;0.98;;;;;;;25.75;20.27;94933.19;4996741;28;20041;-83
2021/10/24 04:15:38;;;;;;;0.80;0.80;;;;;;;25.80;20.31;94935.03;4991816;28;20026;-83
2021/10/24 04:18:06;;;;;;;1.00;0.90;;;;;;;25.73;20.25;94924.69;4961854;28;20036;-83
2021/10/24 04:20:35;;;;;;;0.77;0.77;;;;;;;25.75;20.20;94941.19;4998797;28;20034;-83
2021/10/24 04:23:01;;;;;;;0.80;0.80;;;;;;;25.75;20.10;94933.19;4981514;28;20029;-83
2021/10/24 04:25:26;;;;;;;1.08;0.98;;;;;;;25.74;20.22;94941.47;4980094;28;20084;-83
2021/10/24 04:27:52;;;;;;;1.00;1.00;;;;;;;25.73;19.89;94934.56;4965137;28;20053;-83
2021/10/24 04:30:18;;;;;;;0.90;0.90;;;;;;;25.74;20.30;94933.47;4995044;28;20034;-83
2021/10/24 04:32:44;;;;;;;0.77;0.77;;;;;;;25.75;20.09;94938.53;4999395;28;20049;-83
2021/10/24 04:35:10;;;;;;;0.80;0.80;;;;;;;25.76;20.11;94939.34;5006241;28;20030;-83
2021/10/24 04:37:36;;;;;;;1.10;1.00;;;;;;;25.74;20.06;94942.28;4978421;28;20109;-83
2021/10/24 04:40:05;;;;;;;1.20;1.10;;;;;;;25.72;20.07;94939.09;4980483;28;20128;-84
2021/10/24 04:42:33;;;;;;;1.20;1.10;;;;;;;25.76;19.92;94944.66;5006394;28;20026;-84
2021/10/24 04:45:01;;;;;;;0.93;0.82;;;;;;;25.75;19.98;94935.84;4992095;28;20034;-83
2021/10/24 04:47:29;;;;;;;1.20;1.00;;;;;;;25.82;20.32;94942.75;4958538;28;20038;-83
2021/10/24 04:49:57;;;;;;;1.02;1.00;;;;;;;25.74;19.82;94936.13;4992275;28;20031;-83
2021/10/24 04:52:23;;;;;;;1.05;1.05;;;;;;;25.73;19.99;94938.00;5009463;28;20040;-83
2021/10/24 04:54:49;;;;;;;1.00;0.90;;;;;;;25.76;20.13;94939.34;4986515;28;20026;-83
2021/10/24 04:57:14;;;;;;;1.10;1.00;;;;;;;25.76;20.30;94939.34;5011253;28;20033;-83
2021/10/24 04:59:43;;;;;;;1.02;0.93;;;;;;;25.75;20.16;94935.84;4980227;28;20035;-83
2021/10/24 05:02:11;;;;;;;1.08;0.90;;;;;;;25.75;19.74;94941.19;5007318;28;20025;-83
2021/10/24 05:04:39;;;;;;;1.05;1.05;;;;;;;25.76;19.79;94934.00;4992752;28;20026;-83
2021/10/24 05:07:07;;;;;;;1.10;0.90;;;;;;;25.72;19.89;94924.97;4999074;28;20041;-83
2021/10/24 05:09:37;;;;;;;1.20;1.10;;;;;;;25.74;19.70;94926.28;4994235;28;20056;-83
2021/10/24 05:12:02;;;;;;;;;;;;;;;25.96;20.51;94935.69;4969291;28;20041;-83
2021/10/24 05:14:28;;;;;;;1.00;1.00;;;;;;;25.84;19.85;94935.28;5021839;28;19917;-84
2021/10/24 05:16:55;;;;;;;1.13;1.00;;;;;;;25.80;19.81;94935.03;4962925;28;20039;-83
2021/10/24 05:19:21;;;;;;;1.00;1.00;;;;;;;25.78;19.92;94934.53;4990619;28;20041;-83
2021/10/24 05:21:46;;;;;;;0.90;0.90;;;;;;;25.78;20.11;94937.19;4991186;28;20026;-84
2021/10/24 05:24:12;;;;;;;1.20;1.10;;;;;;;25.74;19.74;94930.81;4977758;28;20065;-83
2021/10/24 05:26:37;;;;;;;1.20;1.10;;;;;;;25.74;19.96;94936.94;5010519;28;20026;-83
2021/10/24 05:29:03;;;;;;;1.30;0.95;;;;;;;25.76;19.86;94939.34;4990957;28;20073;-83
2021/10/24 05:31:31;;;;;;;1.10;1.00;;;;;;;25.74;20.11;94942.28;5001350;28;20089;-83
2021/10/24 05:33:56;;;;;;;0.95;0.95;;;;;;;25.75;19.90;94941.19;5014220;28;20033;-83
2021/10/24 05:36:22;;;;;;;1.17;1.08;;;;;;;25.74;19.77;94942.28;4980632;28;20029;-83
2021/10/24 05:38:47;;;;;;;1.00;1.00;;;;;;;25.69;19.91;94929.00;5006366;28;20037;-83
2021/10/24 05:41:13;;;;;;;1.30;1.20;;;;;;;25.75;19.98;94943.84;4988170;28;20026;-83
2021/10/24 05:43:40;;;;;;;1.20;1.10;;;;;;;25.74;19.82;94944.94;5001908;28;20038;-83
2021/10/24 05:46:07;;;;;;;1.45;1.25;;;;;;;25.74;19.91;94939.63;4981002;28;20044;-83
2021/10/24 05:48:33;;;;;;;1.52;1.30;;;;;;;25.74;20.19;94941.47;4971595;28;20324;-84
2021/10/24 05:50:59;;;;;;;1.60;1.30;;;;;;;25.74;19.79;94939.63;4954767;28;20035;-84
2021/10/24 05:53:24;;;;;;;2.28;1.25;;;;;;;25.73;20.05;94942.56;4988784;28;20034;-83
2021/10/24 05:55:50;;;;;;;1.58;1.00;;;;;;;25.73;20.16;94948.66;4977922;28;20065;-83
2021/10/24 05:58:16;;;;;;;1.58;1.30;;;;;;;25.75;19.90;94948.38;5012007;28;20037;-83
2021/10/24 06:00:41;;;;;;;1.38;1.27;;;;;;;25.74;20.38;94949.44;4976751;28;20062;-83
2021/10/24 06:03:06;;;;;;;1.60;1.50;;;;;;;25.75;20.35;94951.84;4986324;28;20034;-83
2021/10/24 06:05:35;;;;;;;1.50;1.40;;;;;;;25.77;19.87;94950.78;5005907;28;20034;-83
2021/10/24 06:08:03;;;;;;;2.13;1.50;;;;;;;25.75;20.13;94962.50;4990435;28;20057;-83
2021/10/24 06:10:34;;;;;;;1.70;1.45;;;;;;;25.82;20.16;94954.19;4991100;28;20027;-83
2021/10/24 06:13:04;;;;;;;2.00;1.40;;;;;;;25.83;20.39;94965.63;4975472;28;20184;-83
2021/10/24 06:15:29;;;;;;;;;;;;;;;25.97;20.34;94968.47;4996692;28;20022;-83
2021/10/24 06:17:57;;;;;;;1.98;1.60;;;;;;;25.84;19.98;94973.34;5005550;28;20002;-84
2021/10/24 06:20:23;;;;;;;1.67;1.55;;;;;;;25.80;20.46;94971.50;4992583;28;20030;-83
2021/10/24 06:22:51;;;;;;;2.10;1.80;;;;;;;25.78;20.11;94969.16;4958112;28;20074;-84
2021/10/24 06:25:19;;;;;;;2.22;1.70;;;;;;;25.76;20.56;94976.63;4989514;28;20018;-84
2021/10/24 06:27:45;;;;;;;2.55;2.35;;;;;;;25.77;20.01;94975.53;4971734;28;20054;-84
2021/10/24 06:30:22;;;;;;;2.22;2.03;;;;;;;25.82;20.46;94974.72;4989486;28;20129;-83
2021/10/24 06:32:50;;;;;;;2.08;1.90;;;;;;;25.75;20.51;94973.16;4976222;28;20044;-84
2021/10/24 06:35:15;;;;;;;3.30;2.10;;;;;;;25.77;20.53;94985.41;4996879;28;20034;-84
2021/10/24 06:37:45;;;;;;;2.20;1.98;;;;;;;25.77;20.50;94980.09;4973197;28;20034;-85
2021/10/24 06:40:15;;;;;;;2.57;2.10;;;;;;;25.74;20.50;94979.56;4973004;28;20027;-84
2021/10/24 06:42:41;;;;;;;2.63;2.15;;;;;;;25.77;20.53;94972.09;4979254;28;20057;-84
2021/10/24 06:45:07;;;;;;;2.60;2.03;;;;;;;25.75;20.76;94973.16;4986034;28;20035;-84
2021/10/24 06:47:33;;;;;;;2.47;1.98;;;;;;;25.74;20.82;94974.25;5016359;28;20033;-84
2021/10/24 06:49:59;;;;;;;2.28;2.08;;;;;;;25.77;20.60;94974.75;4994715;28;20036;-85
2021/10/24 06:52:26;;;;;;;2.58;2.10;;;;;;;25.79;20.71;94985.94;4990332;28;20034;-84
2021/10/24 06:54:55;;;;;;;2.08;1.88;;;;;;;25.76;20.71;94984.63;4997791;28;20035;-83
2021/10/24 06:57:21;;;;;;;2.22;2.03;;;;;;;25.78;20.76;94990.47;4996324;28;20111;-82
2021/10/24 06:59:50;;;;;;;2.28;1.92;;;;;;;25.79;20.99;94996.59;4995997;28;20073;-82
2021/10/24 07:02:19;;;;;;;2.20;1.80;;;;;;;25.77;21.21;94994.19;4996498;28;20041;-83
2021/10/24 07:04:47;;;;;;;2.47;1.90;;;;;;;25.78;20.98;94994.97;4981879;28;20037;-83
2021/10/24 07:07:12;;;;;;;2.22;2.00;;;;;;;25.78;20.88;94992.31;4995833;28;20038;-83
2021/10/24 07:09:38;;;;;;;2.13;1.92;;;;;;;25.75;21.18;94991.00;4994232;28;20416;-85
2021/10/24 07:12:03;;;;;;;2.30;1.95;;;;;;;25.80;21.06;94987.50;4994911;28;20032;-83
2021/10/24 07:14:31;;;;;;;2.45;1.90;;;;;;;25.79;20.80;94997.38;5008192;28;20105;-84
2021/10/24 07:17:01;;;;;;;1.90;1.70;;;;;;;25.79;21.38;94993.91;5001024;28;20034;-82
2021/10/24 07:19:26;;;;;;;;;;;;;;;26.00;20.79;95000.69;4999908;28;20034;-84
2021/10/24 07:21:54;;;;;;;2.00;1.80;;;;;;;25.87;20.94;95003.97;5028199;28;19982;-85
2021/10/24 07:24:22;;;;;;;1.85;1.67;;;;;;;25.84;20.89;95000.00;4994300;28;20054;-84
2021/10/24 07:26:49;;;;;;;2.17;1.90;;;;;;;25.80;21.57;95004.31;5009586;28;20037;-84
2021/10/24 07:29:20;;;;;;;1.90;1.70;;;;;;;25.79;21.13;95005.34;4997768;28;20018;-84
2021/10/24 07:31:48;;;;;;;2.13;1.65;;;;;;;25.84;20.97;95005.31;5011826;28;20046;-85
2021/10/24 07:34:13;;;;;;;2.00;1.90;;;;;;;25.81;21.00;95019.19;4980138;28;20010;-86
2021/10/24 07:36:39;;;;;;;1.88;1.67;;;;;;;25.79;21.12;95016.03;4977163;28;20158;-85
2021/10/24 07:39:07;;;;;;;1.60;1.50;;;;;;;25.74;21.42;95000.06;5001086;28;20033;-84
2021/10/24 07:41:35;;;;;;;1.65;1.55;;;;;;;25.80;21.29;95014.97;4999359;28;20069;-85
2021/10/24 07:44:00;;;;;;;1.58;1.48;;;;;;;25.80;21.17;95019.47;4993176;28;20036;-83
2021/10/24 07:46:28;;;;;;;1.80;1.65;;;;;;;25.80;21.25;95014.97;4976777;28;20034;-85
2021/10/24 07:48:53;;;;;;;2.17;1.63;;;;;;;25.81;21.32;95019.19;4976960;28;20121;-83
2021/10/24 07:51:18;;;;;;;2.20;1.73;;;;;;;25.81;21.31;95018.41;4994115;28;20042;-84
2021/10/24 07:53:44;;;;;;;2.13;1.80;;;;;;;25.81;21.53;95010.41;4957888;28;20111;-87
2021/10/24 07:56:09;;;;;;;1.67;1.58;;;;;;;25.82;21.62;95009.34;4996377;28;20025;-86
2021/10/24 07:58:37;;;;;;;1.80;1.60;;;;;;;25.81;21.51;95005.09;4979271;28;20033;-86
2021/10/24 08:01:05;;;;;;;1.83;1.73;;;;;;;25.77;22.70;95004.84;4990986;28;20035;-86
2021/10/24 08:03:31;;;;;;;2.17;1.70;;;;;;;25.83;22.75;95002.94;4993040;28;20063;-83
2021/10/24 08:05:56;;;;;;;2.03;1.55;;;;;;;25.84;22.93;95015.19;4973288;28;20041;-84
2021/10/24 08:08:22;;;;;;;1.50;1.40;;;;;;;25.78;23.14;95009.13;4990993;28;20030;-84
2021/10/24 08:10:47;;;;;;;2.20;1.60;;;;;;;25.67;22.79;94987.06;4970983;28;20030;-85
2021/10/24 08:13:13;;;;;;;1.70;1.40;;;;;;;25.77;22.90;94998.72;4993178;28;20034;-84
2021/10/24 08:15:38;;;;;;;1.50;1.40;;;;;;;25.74;22.66;95000.88;4989554;28;20023;-84
2021/10/24 08:18:04;;;;;;;1.30;1.20;;;;;;;25.78;22.84;95009.13;5007458;28;20030;-83
2021/10/24 08:20:31;;;;;;;1.45;1.20;;;;;;;25.78;22.74;95002.97;4975410;28;20026;-84
2021/10/24 08:22:57;;;;;;;1.20;1.10;;;;;;;25.85;22.73;95008.78;4991398;28;20296;-84
2021/10/24 08:25:24;;;;;;;1.23;1.13;;;;;;;25.82;22.69;95010.16;5006350;28;20029;-84
2021/10/24 08:27:53;;;;;;;1.30;0.98;;;;;;;25.83;22.61;95008.25;4974654;28;20030;-84
2021/10/24 08:30:21;;;;;;;1.23;1.13;;;;;;;25.84;22.65;95013.31;4989260;28;20045;-84
2021/10/24 08:32:47;;;;;;;2.25;1.48;;;;;;;25.85;22.65;95011.44;4960329;28;20057;-83
2021/10/24 08:35:12;;;;;;;1.83;1.00;;;;;;;25.86;22.64;95016.50;5004578;28;20046;-83
2021/10/24 08:37:38;;;;;;;1.85;1.33;;;;;;;25.87;22.75;95017.28;4998371;28;20030;-83
2021/10/24 08:40:05;;;;;;;1.10;1.00;;;;;;;25.87;22.51;95014.63;4984886;28;20041;-82
2021/10/24 08:42:33;;;;;;;1.20;1.10;;;;;;;25.85;22.72;95017.56;5004655;28;20025;-82
2021/10/24 08:45:01;;;;;;;0.85;0.85;;;;;;;25.87;23.05;95006.63;4991916;28;20033;-82
2021/10/24 08:47:30;;;;;;;0.80;0.80;;;;;;;25.85;22.80;95001.56;4990259;28;20022;-83
2021/10/24 08:49:56;;;;;;;1.42;1.00;;;;;;;25.87;22.87;95006.63;4974850;28;20062;-82
2021/10/24 08:52:25;;;;;;;1.50;1.00;;;;;;;25.89;23.01;95010.63;4989316;28;20198;-83
2021/10/24 08:54:53;;;;;;;1.00;1.00;;;;;;;25.89;22.92;95002.63;4985865;28;20034;-84
2021/10/24 08:57:27;;;;;;;1.35;1.20;;;;;;;25.99;22.77;95017.75;5012041;28;20105;-83
2021/10/24 08:59:57;;;;;;;1.42;1.00;;;;;;;25.89;22.87;95001.81;4961984;28;20125;-83
2021/10/24 09:02:26;;;;;;;1.20;1.10;;;;;;;25.97;22.69;95009.25;4975285;28;20030;-83
2021/10/24 09:04:52;;;;;;;1.05;1.00;;;;;;;25.87;23.21;94996.75;4991561;28;20087;-83
2021/10/24 09:07:18;;;;;;;1.23;1.10;;;;;;;25.90;22.95;94998.09;4996273;28;20030;-83
2021/10/24 09:09:44;;;;;;;1.17;1.00;;;;;;;25.86;23.21;94992.53;4990820;28;20058;-83
2021/10/24 09:12:11;;;;;;;1.20;1.10;;;;;;;25.88;23.11;94993.03;4975427;28;20124;-83
2021/10/24 09:14:51;;;;;;;1.10;1.00;;;;;;;25.96;22.74;94997.00;4989510;28;20034;-84
2021/10/24 09:17:24;;;;;;;1.15;1.05;;;;;;;25.95;23.11;94995.41;4962196;28;20087;-83
2021/10/24 09:20:00;;;;;;;1.05;0.98;;;;;;;25.96;22.82;94989.00;4979453;28;20034;-84
2021/10/24 09:22:30;;;;;;;1.05;1.02;;;;;;;25.89;23.19;94985.81;4976955;28;20039;-84
2021/10/24 09:25:02;;;;;;;1.13;1.02;;;;;;;25.94;23.00;94980.50;4934232;29;20027;-84
2021/10/24 09:27:28;;;;;;;0.93;0.80;;;;;;;25.78;23.26;94973.66;4932312;29;20219;-83
2021/10/24 09:29:54;;;;;;;1.10;1.00;;;;;;;25.89;23.63;94991.97;4952391;28;20054;-84
2021/10/24 09:32:20;;;;;;;1.30;1.10;;;;;;;25.90;23.26;94985.56;4951193;28;20038;-84
2021/10/24 09:34:50;;;;;;;1.10;1.00;;;;;;;25.92;23.34;94983.44;4971620;28;20118;-83
2021/10/24 09:37:20;;;;;;;1.15;1.05;;;;;;;25.96;23.63;94980.22;4951750;28;20037;-83
2021/10/24 09:39:45;;;;;;;1.20;1.10;;;;;;;25.88;23.43;94982.38;4950927;28;20122;-83
2021/10/24 09:42:17;;;;;;;1.38;1.27;;;;;;;25.91;23.79;94978.34;4926417;28;20034;-84
2021/10/24 09:44:59;;;;;;;1.02;0.98;;;;;;;25.98;23.19;94978.84;4963637;28;20066;-84
2021/10/24 09:47:25;;;;;;;0.88;0.88;;;;;;;25.89;23.74;94977.84;4958976;28;20030;-85
2021/10/24 09:49:53;;;;;;;1.02;0.90;;;;;;;25.89;23.78;94986.66;4954481;28;20054;-84
2021/10/24 09:52:29;;;;;;;3.10;1.10;;;;;;;25.99;23.39;94987.63;4936726;28;20054;-84
2021/10/24 09:54:55;;;;;;;1.10;1.00;;;;;;;25.88;23.85;94984.25;4920835;28;20041;-84
2021/10/24 09:57:21;;;;;;;1.55;1.08;;;;;;;25.91;23.81;94989.00;4919571;28;20039;-84
2021/10/24 09:59:49;;;;;;;0.98;0.90;;;;;;;25.92;23.73;94982.66;4938410;28;20023;-84
2021/10/24 10:02:17;;;;;;;0.88;0.88;;;;;;;25.92;23.60;94987.97;4937544;28;20034;-84
2021/10/24 10:04:43;;;;;;;1.02;0.90;;;;;;;25.91;23.92;94986.34;4955979;28;20124;-83
2021/10/24 10:07:08;;;;;;;2.10;0.90;;;;;;;25.91;23.86;94979.19;4919198;28;20027;-83
2021/10/24 10:09:33;;;;;;;0.80;0.80;;;;;;;25.92;24.04;94980.75;4950023;28;20029;-84
2021/10/24 10:11:59;;;;;;;0.95;0.90;;;;;;;25.96;24.08;94981.00;4953951;28;20045;-84
2021/10/24 10:14:29;;;;;;;1.27;0.93;;;;;;;26.05;23.71;94986.53;4917327;28;20031;-84
2021/10/24 10:17:06;;;;;;;1.00;0.95;;;;;;;26.06;23.22;94978.22;4933545;28;20019;-84
2021/10/24 10:19:44;;;;;;;0.73;0.73;;;;;;;26.06;23.76;94983.56;4949908;28;20039;-84
2021/10/24 10:22:24;;;;;;;1.10;1.00;;;;;;;26.12;23.74;94976.31;4965804;28;20035;-83
2021/10/24 10:24:59;;;;;;;;;;;;;;;26.22;23.14;94976.22;4963419;28;20081;-84
2021/10/24 10:27:27;;;;;;;1.08;0.90;;;;;;;26.14;24.01;94972.31;4964427;28;19927;-84
2021/10/24 10:29:54;;;;;;;0.80;0.80;;;;;;;26.07;24.35;94973.72;4950931;28;20027;-84
2021/10/24 10:32:24;;;;;;;1.00;0.90;;;;;;;26.07;24.21;94971.06;4922170;29;20426;-84
2021/10/24 10:34:59;;;;;;;0.90;0.90;;;;;;;26.17;23.92;94972.81;4935682;28;20062;-83
2021/10/24 10:37:55;;;;;;;0.75;0.75;;;;;;;26.17;23.80;94964.81;4953725;28;20035;-84
2021/10/24 10:40:28;;;;;;;0.77;0.77;;;;;;;26.07;23.98;94971.84;4965009;28;20031;-84
2021/10/24 10:43:03;;;;;;;1.02;0.90;;;;;;;26.16;23.79;94972.03;4964110;28;20030;-84
2021/10/24 10:45:59;;;;;;;1.00;0.90;;;;;;;26.17;23.86;94962.94;4961472;28;20027;-83
2021/10/24 10:48:34;;;;;;;0.98;0.90;;;;;;;26.09;24.58;94964.34;4963703;28;20045;-84
2021/10/24 10:51:19;;;;;;;0.85;0.85;;;;;;;26.18;23.72;94955.72;4961724;28;20035;-84
2021/10/24 10:53:44;;;;;;;0.80;0.80;;;;;;;26.11;24.50;94972.88;4946994;28;20032;-85
2021/10/24 10:56:15;;;;;;;1.15;1.02;;;;;;;26.18;24.04;94971.72;4952049;28;20047;-84
2021/10/24 10:59:16;;;;;;;0.77;0.77;;;;;;;26.24;23.92;94960.75;4966680;28;20030;-85
2021/10/24 11:01:44;;;;;;;0.90;0.90;;;;;;;26.11;24.34;94964.88;4916595;29;20038;-86
2021/10/24 11:04:09;;;;;;;0.93;0.85;;;;;;;26.13;23.95;94956.59;4920567;28;20062;-83
2021/10/24 11:06:36;;;;;;;1.42;1.20;;;;;;;26.13;24.02;94962.72;4936536;29;20035;-84
2021/10/24 11:09:05;;;;;;;1.10;1.00;;;;;;;26.13;24.01;94954.72;4949064;28;20093;-83
2021/10/24 11:11:40;;;;;;;0.90;0.80;;;;;;;26.21;24.00;94957.84;4932854;28;20081;-84
2021/10/24 11:14:11;;;;;;;1.77;0.82;;;;;;;26.23;23.86;94961.03;4950936;28;20038;-84
2021/10/24 11:16:45;;;;;;;1.23;1.08;;;;;;;26.23;23.70;94953.03;4947785;28;20023;-84
2021/10/24 11:19:36;;;;;;;1.30;1.02;;;;;;;26.23;23.83;94948.47;4939146;28;20069;-84
2021/10/24 11:22:11;;;;;;;1.17;1.00;;;;;;;26.21;23.57;94945.31;4944106;28;20739;-84
2021/10/24 11:24:53;;;;;;;1.08;0.95;;;;;;;26.23;23.83;94948.47;4930133;28;20138;-83
2021/10/24 11:27:29;;;;;;;1.00;1.00;;;;;;;26.21;23.93;94947.19;4944064;28;20034;-84
2021/10/24 11:30:00;;;;;;;1.10;1.00;;;;;;;26.23;24.04;94943.16;4942587;28;20035;-83
2021/10/24 11:32:35;;;;;;;1.15;1.08;;;;;;;26.18;24.12;94945.06;4892106;29;20356;-84
2021/10/24 11:35:13;;;;;;;1.65;1.20;;;;;;;26.18;24.19;94945.88;4882554;29;20047;-83
2021/10/24 11:37:48;;;;;;;1.20;1.10;;;;;;;26.23;23.62;94937.03;4900834;29;20028;-85